Wetterdaten: Dienstag, 06.10.2015
Datum Zeit Temp. A. Mod.Schuppen Feuchte A. Luftdruck Regen Wind Richtung Richtung Sonnenschein Helligkeit Solar
06.10.2015 00:00 14,0 C 13,0 C 82 % 1005,9 hPa 0,0 l/m 6,1 km/h (2 Bft) O-SO22.5 120 0 min 0 lux 0 W/m
06.10.2015 00:05 14,0 C 12,9 C 82 % 1005,9 hPa 0,4 l/m 0,5 km/h (0 Bft) O 80 0 min 0 lux 0 W/m
06.10.2015 00:10 14,0 C 12,9 C 82 % 1005,9 hPa 0,0 l/m 0,5 km/h (0 Bft) O 80 0 min 0 lux 0 W/m
06.10.2015 00:15 13,9 C 12,9 C 82 % 1005,9 hPa 0,0 l/m 1,4 km/h (1 Bft) O-SO22.5 105 0 min 0 lux 0 W/m
06.10.2015 00:20 13,9 C 12,9 C 83 % 1004,9 hPa 0,0 l/m 0,6 km/h (0 Bft) O-SO 105 0 min 905 lux 0 W/m
06.10.2015 00:25 13,8 C 12,9 C 83 % 1004,9 hPa 0,4 l/m 0,9 km/h (0 Bft) O 95 0 min 0 lux 0 W/m
06.10.2015 00:30 13,8 C 13,0 C 83 % 1004,9 hPa 0,0 l/m 1,2 km/h (1 Bft) O 90 0 min 0 lux 0 W/m
06.10.2015 00:35 13,8 C 13,0 C 83 % 1004,9 hPa 0,0 l/m 1,2 km/h (1 Bft) O-NO22.5 65 0 min 0 lux 0 W/m
06.10.2015 00:40 13,8 C 12,9 C 84 % 1004,9 hPa 0,0 l/m 4,6 km/h (1 Bft) O-NO 75 0 min 0 lux 0 W/m
06.10.2015 00:45 13,8 C 12,9 C 84 % 1004,9 hPa 0,4 l/m 5,4 km/h (2 Bft) O22.5 80 0 min 0 lux 0 W/m
06.10.2015 00:50 13,8 C 13,0 C 84 % 1004,9 hPa 0,0 l/m 1,0 km/h (0 Bft) O 90 0 min 0 lux 0 W/m
06.10.2015 00:54 13,7 C 13,0 C 84 % 1004,9 hPa 0,4 l/m 8,2 km/h (2 Bft) O-SO22.5 105 0 min 0 lux 0 W/m
06.10.2015 01:00 13,7 C 13,0 C 84 % 1004,9 hPa 0,4 l/m 1,0 km/h (0 Bft) O22.5 90 0 min 0 lux 0 W/m
06.10.2015 01:05 13,7 C 13,1 C 85 % 1004,9 hPa 0,0 l/m 5,2 km/h (1 Bft) O22.5 85 0 min 0 lux 0 W/m
06.10.2015 01:10 13,7 C 13,1 C 85 % 1004,9 hPa 0,4 l/m 1,6 km/h (1 Bft) O22.5 90 0 min 0 lux 0 W/m
06.10.2015 01:15 13,7 C 13,1 C 85 % 1004,9 hPa 0,0 l/m 5,0 km/h (1 Bft) O 80 0 min 0 lux 0 W/m
06.10.2015 01:20 13,8 C 13,2 C 85 % 1003,9 hPa 0,4 l/m 1,2 km/h (1 Bft) O22.5 90 0 min 0 lux 0 W/m
06.10.2015 01:25 13,8 C 13,2 C 85 % 1003,9 hPa 0,4 l/m 5,4 km/h (2 Bft) O22.5 90 0 min 0 lux 0 W/m
06.10.2015 01:30 13,8 C 13,3 C 85 % 1003,9 hPa 0,0 l/m 1,5 km/h (1 Bft) O 95 0 min 0 lux 0 W/m
06.10.2015 01:35 13,9 C 13,4 C 85 % 1003,9 hPa 0,4 l/m 6,0 km/h (2 Bft) O22.5 80 0 min 0 lux 0 W/m
06.10.2015 01:40 14,0 C 13,4 C 86 % 1003,9 hPa 0,0 l/m 6,0 km/h (2 Bft) N-NW22.5 335 0 min 10,4 klux 0 W/m
06.10.2015 01:45 14,0 C 13,5 C 86 % 1003,9 hPa 0,0 l/m 7,9 km/h (2 Bft) O-NO22.5 75 0 min 0 lux 0 W/m
06.10.2015 01:50 14,0 C 13,5 C 86 % 1003,9 hPa 0,0 l/m 11,5 km/h (2 Bft) O-NO22.5 75 0 min 0 lux 0 W/m
06.10.2015 01:54 14,0 C 13,6 C 86 % 1003,9 hPa 0,4 l/m 12,2 km/h (2 Bft) O22.5 80 0 min 0 lux 0 W/m
06.10.2015 02:00 14,0 C 13,6 C 86 % 1003,9 hPa 0,4 l/m 11,9 km/h (2 Bft) O22.5 85 0 min 0 lux 0 W/m
06.10.2015 02:05 14,0 C 13,6 C 87 % 1003,9 hPa 0,0 l/m 10,8 km/h (2 Bft) O45 90 0 min 0 lux 0 W/m
06.10.2015 02:10 14,0 C 13,6 C 87 % 1002,9 hPa 0,0 l/m 10,6 km/h (2 Bft) O-NO45 75 0 min 0 lux 0 W/m
06.10.2015 02:15 14,1 C 13,7 C 87 % 1002,9 hPa 0,0 l/m 10,6 km/h (2 Bft) O45 80 0 min 0 lux 0 W/m
06.10.2015 02:20 14,1 C 13,8 C 87 % 1002,9 hPa 0,4 l/m 15,6 km/h (3 Bft) O22.5 80 0 min 0 lux 0 W/m
06.10.2015 02:25 14,1 C 13,8 C 87 % 1002,9 hPa 0,0 l/m 11,3 km/h (2 Bft) O-NO45 70 0 min 0 lux 0 W/m
06.10.2015 02:30 14,2 C 13,8 C 87 % 1002,9 hPa 0,4 l/m 14,2 km/h (3 Bft) O45 100 0 min 0 lux 0 W/m
06.10.2015 02:35 14,3 C 13,8 C 87 % 1002,9 hPa 0,0 l/m 11,5 km/h (2 Bft) O45 90 0 min 0 lux 0 W/m
06.10.2015 02:40 14,3 C 13,9 C 87 % 1002,9 hPa 0,4 l/m 13,1 km/h (3 Bft) O-SO67.5 105 0 min 0 lux 0 W/m
06.10.2015 02:45 14,3 C 14,0 C 88 % 1002,9 hPa 0,4 l/m 19,1 km/h (3 Bft) O-SO67.5 110 0 min 0 lux 0 W/m
06.10.2015 02:50 14,4 C 14,0 C 88 % 1002,9 hPa 0,7 l/m 12,1 km/h (2 Bft) O45 90 0 min 0 lux 0 W/m
06.10.2015 02:55 14,4 C 14,1 C 88 % 1002,9 hPa 0,4 l/m 14,8 km/h (3 Bft) O67.5 90 0 min 0 lux 0 W/m
06.10.2015 03:00 14,4 C 14,1 C 88 % 1002,9 hPa 0,0 l/m 15,0 km/h (3 Bft) N 360 0 min 15,0 klux 0 W/m
06.10.2015 03:05 14,4 C 14,1 C 88 % 1001,9 hPa 1,4 l/m 15,0 km/h (3 Bft) O45 100 0 min 0 lux 0 W/m
06.10.2015 03:10 14,4 C 14,1 C 88 % 1001,9 hPa 1,1 l/m 10,3 km/h (2 Bft) O67.5 100 0 min 0 lux 0 W/m
06.10.2015 03:15 14,4 C 14,1 C 88 % 1001,9 hPa 0,4 l/m 12,8 km/h (3 Bft) O67.5 95 0 min 0 lux 0 W/m
06.10.2015 03:20 14,4 C 14,1 C 88 % 1001,9 hPa 0,4 l/m 17,3 km/h (3 Bft) O45 95 0 min 0 lux 0 W/m
06.10.2015 03:25 14,5 C 14,2 C 88 % 1001,9 hPa 0,0 l/m 16,4 km/h (3 Bft) O45 90 0 min 0 lux 0 W/m
06.10.2015 03:30 14,5 C 14,2 C 89 % 1001,9 hPa 0,4 l/m 18,1 km/h (3 Bft) O-SO67.5 110 0 min 0 lux 0 W/m
06.10.2015 03:35 14,5 C 14,3 C 89 % 1001,9 hPa 0,4 l/m 14,6 km/h (3 Bft) O45 100 0 min 0 lux 0 W/m
06.10.2015 03:40 14,4 C 14,3 C 88 % 1001,9 hPa 0,0 l/m 12,9 km/h (3 Bft) O-SO45 110 0 min 0 lux 0 W/m
06.10.2015 03:45 14,4 C 14,3 C 88 % 1001,9 hPa 0,0 l/m 14,1 km/h (3 Bft) SO45 130 0 min 0 lux 0 W/m
06.10.2015 03:50 14,5 C 14,3 C 89 % 1001,9 hPa 0,0 l/m 9,9 km/h (2 Bft) SO45 125 0 min 0 lux 0 W/m
06.10.2015 03:55 14,5 C 14,3 C 89 % 1001,9 hPa 0,0 l/m 15,6 km/h (3 Bft) SO45 135 0 min 0 lux 0 W/m
06.10.2015 04:00 14,5 C 14,3 C 89 % 1001,9 hPa 0,0 l/m 10,8 km/h (2 Bft) S-SO45 165 0 min 0 lux 0 W/m
06.10.2015 04:05 14,6 C 14,4 C 89 % 1001,9 hPa 0,0 l/m 11,4 km/h (2 Bft) S-SW22.5 195 0 min 0 lux 0 W/m
06.10.2015 04:10 14,7 C 14,4 C 89 % 1001,9 hPa 0,4 l/m 9,0 km/h (2 Bft) S22.5 185 0 min 0 lux 0 W/m
06.10.2015 04:15 14,7 C 14,4 C 89 % 1000,9 hPa 0,0 l/m 11,0 km/h (2 Bft) S22.5 170 0 min 0 lux 0 W/m
06.10.2015 04:20 14,7 C 14,4 C 89 % 1000,9 hPa 0,0 l/m 11,0 km/h (2 Bft) S-SO67.5 150 0 min 4,14 klux 0 W/m
06.10.2015 04:25 14,7 C 14,4 C 89 % 1000,9 hPa 0,0 l/m 9,7 km/h (2 Bft) SO45 130 0 min 0 lux 0 W/m
06.10.2015 04:30 14,7 C 14,4 C 89 % 1000,9 hPa 0,0 l/m 21,3 km/h (4 Bft) S-SO45 165 0 min 0 lux 0 W/m
06.10.2015 04:35 14,7 C 14,4 C 89 % 1000,9 hPa 0,0 l/m 21,3 km/h (4 Bft) S-SO45 165 0 min 0 lux 0 W/m
06.10.2015 04:40 14,7 C 14,4 C 89 % 1000,9 hPa 0,0 l/m 16,0 km/h (3 Bft) S-SO22.5 160 0 min 0 lux 0 W/m
06.10.2015 04:45 14,6 C 14,4 C 89 % 1000,9 hPa 0,0 l/m 24,8 km/h (4 Bft) S-SO45 160 0 min 0 lux 0 W/m
06.10.2015 04:50 14,7 C 14,4 C 89 % 1000,9 hPa 0,0 l/m 18,0 km/h (3 Bft) S-SO22.5 155 0 min 0 lux 0 W/m
06.10.2015 04:54 14,6 C 14,4 C 89 % 1000,9 hPa 0,0 l/m 22,6 km/h (4 Bft) S-SO22.5 160 0 min 0 lux 0 W/m
06.10.2015 05:00 14,6 C 14,4 C 89 % 1000,9 hPa 0,0 l/m 16,2 km/h (3 Bft) S-SO45 160 0 min 0 lux 0 W/m
06.10.2015 05:05 14,6 C 14,4 C 89 % 1000,9 hPa 0,0 l/m 16,2 km/h (3 Bft) S-SO45 160 0 min 0 lux 0 W/m
06.10.2015 05:10 14,6 C 14,4 C 89 % 1000,9 hPa 0,0 l/m 20,7 km/h (4 Bft) S-SO45 160 0 min 0 lux 0 W/m
06.10.2015 05:15 14,6 C 14,4 C 89 % 1000,9 hPa 0,0 l/m 24,1 km/h (4 Bft) S-SO67.5 155 0 min 0 lux 0 W/m
06.10.2015 05:20 14,6 C 14,4 C 89 % 1000,9 hPa 0,0 l/m 21,3 km/h (4 Bft) S-SO22.5 160 0 min 0 lux 0 W/m
06.10.2015 05:25 14,6 C 14,4 C 89 % 1000,9 hPa 0,0 l/m 21,8 km/h (4 Bft) S-SO22.5 155 0 min 0 lux 0 W/m
06.10.2015 05:30 14,6 C 14,4 C 89 % 1000,9 hPa 0,0 l/m 21,8 km/h (4 Bft) S-SO22.5 155 0 min 0 lux 0 W/m
06.10.2015 05:35 14,6 C 14,4 C 89 % 1000,9 hPa 0,0 l/m 21,3 km/h (4 Bft) S-SO22.5 160 0 min 0 lux 0 W/m
06.10.2015 05:40 14,6 C 14,5 C 89 % 1000,9 hPa 0,0 l/m 62,6 km/h (7 Bft) O-SO 120 0 min 1,40 klux 0 W/m
06.10.2015 05:45 14,7 C 14,5 C 89 % 1000,9 hPa 0,0 l/m 15,5 km/h (3 Bft) S-SO45 155 0 min 0 lux 0 W/m
06.10.2015 05:50 14,7 C 14,5 C 89 % 1000,9 hPa 0,0 l/m 17,1 km/h (3 Bft) S-SO22.5 155 0 min 0 lux 0 W/m
06.10.2015 05:54 14,7 C 14,5 C 89 % 1000,9 hPa 0,0 l/m 17,6 km/h (3 Bft) S-SO45 155 0 min 0 lux 0 W/m
06.10.2015 06:00 14,8 C 14,5 C 89 % 1000,9 hPa 0,0 l/m 15,0 km/h (3 Bft) S-SO45 165 0 min 0 lux 0 W/m
06.10.2015 06:05 14,8 C 14,6 C 89 % 1000,9 hPa 0,0 l/m 20,3 km/h (4 Bft) S-SO22.5 160 0 min 0 lux 0 W/m
06.10.2015 06:10 14,8 C 14,6 C 89 % 1000,9 hPa 0,0 l/m 20,3 km/h (4 Bft) S-SO22.5 160 0 min 0 lux 0 W/m
06.10.2015 06:15 14,9 C 14,7 C 89 % 1000,9 hPa 0,0 l/m 17,4 km/h (3 Bft) S22.5 180 0 min 0 lux 0 W/m
06.10.2015 06:20 15,0 C 14,7 C 89 % 1000,9 hPa 0,0 l/m 17,7 km/h (3 Bft) S45 180 0 min 0 lux 0 W/m
06.10.2015 06:25 15,0 C 14,7 C 89 % 1000,9 hPa 0,4 l/m 17,7 km/h (3 Bft) S45 180 0 min 0 lux 0 W/m
06.10.2015 06:30 15,0 C 14,7 C 90 % 1000,9 hPa 0,0 l/m 16,6 km/h (3 Bft) S22.5 175 0 min 0 lux 0 W/m
06.10.2015 06:35 15,0 C 14,8 C 90 % 1000,9 hPa 0,0 l/m 28,8 km/h (5 Bft) S22.5 180 0 min 0 lux 0 W/m
06.10.2015 06:40 15,0 C 14,8 C 89 % 1000,9 hPa 0,0 l/m 16,9 km/h (3 Bft) S22.5 175 0 min 0 lux 0 W/m
06.10.2015 06:45 15,0 C 14,8 C 89 % 1000,9 hPa 0,0 l/m 23,0 km/h (4 Bft) S45 180 0 min 0 lux 0 W/m
06.10.2015 06:50 15,0 C 15,1 C 89 % 1000,9 hPa 0,0 l/m 23,0 km/h (4 Bft) S45 180 0 min 0 lux 0 W/m
06.10.2015 06:55 15,0 C 15,1 C 89 % 1000,9 hPa 0,0 l/m 23,8 km/h (4 Bft) S45 185 0 min 0 lux 0 W/m
06.10.2015 07:00 15,0 C 15,1 C 89 % 1000,9 hPa 0,0 l/m 26,5 km/h (4 Bft) N22.5 0 0 min 6,31 klux 0 W/m
06.10.2015 07:05 15,0 C 15,1 C 89 % 1000,9 hPa 0,0 l/m 19,7 km/h (3 Bft) S-SW22.5 195 0 min 0 lux 0 W/m
06.10.2015 07:10 15,0 C 15,1 C 89 % 1000,9 hPa 0,0 l/m 26,4 km/h (4 Bft) S-SW45 210 0 min 0 lux 0 W/m
06.10.2015 07:15 15,0 C 15,1 C 89 % 1000,9 hPa 0,0 l/m 14,3 km/h (3 Bft) S-SW45 205 0 min 0 lux 0 W/m
06.10.2015 07:20 15,0 C 15,1 C 89 % 1000,9 hPa 0,0 l/m 19,6 km/h (3 Bft) SW45 225 0 min 0 lux 0 W/m
06.10.2015 07:25 15,0 C 15,1 C 89 % 1000,9 hPa 0,0 l/m 21,5 km/h (4 Bft) SW22.5 220 0 min 0 lux 0 W/m
06.10.2015 07:30 15,0 C 15,1 C 89 % 1000,9 hPa 0,0 l/m 21,5 km/h (4 Bft) SW22.5 220 0 min 30 lux 0 W/m
06.10.2015 07:35 15,0 C 15,0 C 89 % 1000,9 hPa 0,0 l/m 24,6 km/h (4 Bft) SW22.5 215 0 min 57 lux 0 W/m
06.10.2015 07:40 15,0 C 15,0 C 89 % 1000,9 hPa 0,0 l/m 22,8 km/h (4 Bft) S-SW45 205 0 min 121 lux 0 W/m
06.10.2015 07:45 15,0 C 14,9 C 89 % 1000,9 hPa 0,0 l/m 22,8 km/h (4 Bft) S-SW45 205 0 min 140 lux 0 W/m
06.10.2015 07:50 15,0 C 14,9 C 89 % 1000,9 hPa 0,0 l/m 22,8 km/h (4 Bft) S-SW45 205 0 min 162 lux 1 W/m
06.10.2015 07:55 15,0 C 14,9 C 89 % 1000,9 hPa 0,0 l/m 22,8 km/h (4 Bft) S-SW45 205 0 min 176 lux 1 W/m
06.10.2015 08:00 14,8 C 14,8 C 89 % 1000,9 hPa 0,0 l/m 22,8 km/h (4 Bft) S-SW45 205 0 min 385 lux 3 W/m
06.10.2015 08:05 14,8 C 14,8 C 88 % 1000,9 hPa 0,0 l/m 22,8 km/h (4 Bft) S-SW45 205 0 min 574 lux 4 W/m
06.10.2015 08:10 14,8 C 14,7 C 88 % 1001,9 hPa 0,0 l/m 22,8 km/h (4 Bft) S-SW45 205 0 min 690 lux 5 W/m
06.10.2015 08:15 14,8 C 14,7 C 88 % 1001,9 hPa 0,0 l/m 22,8 km/h (4 Bft) S-SW45 205 0 min 717 lux 5 W/m
06.10.2015 08:20 14,8 C 14,7 C 88 % 1001,9 hPa 0,0 l/m 22,8 km/h (4 Bft) S-SW45 205 5 min 24,4 klux 167 W/m
06.10.2015 08:25 14,8 C 14,6 C 88 % 1001,9 hPa 0,0 l/m 22,8 km/h (4 Bft) S-SW45 205 0 min 974 lux 7 W/m
06.10.2015 08:30 14,6 C 14,6 C 87 % 1001,9 hPa 0,0 l/m 27,7 km/h (5 Bft) SW45 230 0 min 1,08 klux 7 W/m
06.10.2015 08:35 14,5 C 14,5 C 87 % 1001,9 hPa 0,0 l/m 27,7 km/h (5 Bft) SW45 230 0 min 990 lux 7 W/m
06.10.2015 08:40 14,5 C 14,5 C 87 % 1001,9 hPa 0,0 l/m 27,7 km/h (5 Bft) SW45 230 0 min 1,05 klux 7 W/m
06.10.2015 08:45 14,4 C 14,5 C 87 % 1001,9 hPa 0,0 l/m 27,7 km/h (5 Bft) SW45 230 0 min 1,28 klux 9 W/m
06.10.2015 08:50 14,4 C 14,4 C 87 % 1001,9 hPa 0,0 l/m 27,7 km/h (5 Bft) SW45 230 0 min 1,13 klux 8 W/m
06.10.2015 08:55 14,5 C 14,5 C 87 % 1001,9 hPa 0,0 l/m 27,7 km/h (5 Bft) SW45 230 0 min 1,32 klux 9 W/m
06.10.2015 09:00 14,4 C 14,5 C 87 % 1001,9 hPa 0,0 l/m 27,7 km/h (5 Bft) SW45 230 0 min 1,79 klux 12 W/m
06.10.2015 09:05 14,4 C 14,6 C 87 % 1001,9 hPa 0,0 l/m 27,7 km/h (5 Bft) SW45 230 0 min 2,60 klux 18 W/m
06.10.2015 09:10 14,5 C 14,7 C 88 % 1001,9 hPa 0,0 l/m 27,7 km/h (5 Bft) SW45 230 0 min 2,60 klux 18 W/m
06.10.2015 09:15 14,5 C 14,8 C 88 % 1001,9 hPa 0,0 l/m 27,7 km/h (5 Bft) SW45 230 0 min 3,23 klux 22 W/m
06.10.2015 09:20 14,5 C 15,0 C 88 % 1001,9 hPa 0,0 l/m 27,7 km/h (5 Bft) SW45 230 0 min 4,22 klux 29 W/m
06.10.2015 09:25 14,6 C 15,1 C 88 % 1001,9 hPa 0,0 l/m 15,2 km/h (3 Bft) SW45 220 0 min 5,46 klux 37 W/m
06.10.2015 09:30 14,6 C 15,2 C 88 % 1001,9 hPa 0,0 l/m 15,2 km/h (3 Bft) SW45 220 0 min 5,81 klux 40 W/m
06.10.2015 09:35 14,6 C 15,4 C 87 % 1001,9 hPa 0,0 l/m 15,2 km/h (3 Bft) SW45 220 0 min 6,40 klux 44 W/m
06.10.2015 09:40 14,8 C 15,5 C 87 % 1001,9 hPa 0,0 l/m 15,0 km/h (3 Bft) N45 360 0 min 12,1 klux 83 W/m
06.10.2015 09:45 14,8 C 15,6 C 87 % 1001,9 hPa 0,0 l/m 15,2 km/h (3 Bft) SW45 220 0 min 7,86 klux 54 W/m
06.10.2015 09:50 14,8 C 15,7 C 87 % 1001,9 hPa 0,0 l/m 15,2 km/h (3 Bft) SW45 220 0 min 5,92 klux 40 W/m
06.10.2015 09:55 14,9 C 15,6 C 87 % 1001,9 hPa 0,0 l/m 15,2 km/h (3 Bft) SW45 220 0 min 5,98 klux 41 W/m
06.10.2015 10:00 14,9 C 15,7 C 87 % 1001,9 hPa 0,0 l/m 15,2 km/h (3 Bft) SW45 220 0 min 9,0 klux 62 W/m
06.10.2015 10:05 15,0 C 16,3 C 87 % 1001,9 hPa 0,0 l/m 13,4 km/h (3 Bft) SW22.5 225 0 min 9,6 klux 66 W/m
06.10.2015 10:10 15,0 C 17,1 C 87 % 1001,9 hPa 0,0 l/m 13,4 km/h (3 Bft) SW22.5 225 0 min 12,7 klux 87 W/m
06.10.2015 10:15 15,0 C 17,6 C 86 % 1001,9 hPa 0,0 l/m 13,4 km/h (3 Bft) SW22.5 225 0 min 11,0 klux 75 W/m
06.10.2015 10:20 15,0 C 17,8 C 86 % 1001,9 hPa 0,0 l/m 13,4 km/h (3 Bft) SW22.5 225 0 min 11,7 klux 80 W/m
06.10.2015 10:25 15,2 C 18,0 C 87 % 1001,9 hPa 0,0 l/m 13,4 km/h (3 Bft) SW22.5 225 0 min 13,1 klux 90 W/m
06.10.2015 10:30 15,2 C 18,1 C 85 % 1002,9 hPa 0,0 l/m 13,4 km/h (3 Bft) SW22.5 225 0 min 12,0 klux 82 W/m
06.10.2015 10:35 15,2 C 18,5 C 85 % 1002,9 hPa 0,0 l/m 13,4 km/h (3 Bft) SW22.5 225 0 min 19,9 klux 136 W/m
06.10.2015 10:40 15,2 C 19,5 C 85 % 1002,9 hPa 0,0 l/m 13,4 km/h (3 Bft) SW22.5 225 0 min 12,9 klux 88 W/m
06.10.2015 10:45 15,2 C 19,2 C 85 % 1002,9 hPa 0,0 l/m 10,4 km/h (2 Bft) S-SW22.5 200 0 min 20,3 klux 139 W/m
06.10.2015 10:50 15,2 C 19,9 C 85 % 1002,9 hPa 0,0 l/m 10,4 km/h (2 Bft) S-SW22.5 200 0 min 21,4 klux 146 W/m
06.10.2015 10:55 15,2 C 21,0 C 85 % 1002,9 hPa 0,0 l/m 10,4 km/h (2 Bft) S-SW22.5 200 0 min 21,7 klux 148 W/m
06.10.2015 11:00 15,2 C 21,1 C 85 % 1001,9 hPa 0,0 l/m 10,4 km/h (2 Bft) S-SW22.5 200 5 min 200 klux 1368 W/m
06.10.2015 11:05 15,2 C 21,1 C 85 % 1001,9 hPa 0,0 l/m 10,4 km/h (2 Bft) S-SW22.5 200 0 min 23,0 klux 157 W/m
06.10.2015 11:10 15,2 C 21,2 C 85 % 1002,9 hPa 0,0 l/m 10,4 km/h (2 Bft) S-SW22.5 200 0 min 21,1 klux 144 W/m
06.10.2015 11:15 16,0 C 21,8 C 85 % 1002,8 hPa 0,0 l/m 10,4 km/h (2 Bft) S-SW22.5 200 0 min 20,2 klux 138 W/m
06.10.2015 11:20 16,0 C 22,9 C 85 % 1002,8 hPa 0,0 l/m 10,4 km/h (2 Bft) S-SW22.5 200 0 min 30,8 klux 211 W/m
06.10.2015 11:25 16,0 C 23,3 C 85 % 1002,8 hPa 0,0 l/m 10,4 km/h (2 Bft) S-SW22.5 200 0 min 23,4 klux 160 W/m
06.10.2015 11:30 16,4 C 23,4 C 85 % 1002,8 hPa 0,0 l/m 10,4 km/h (2 Bft) S-SW22.5 200 0 min 19,6 klux 134 W/m
06.10.2015 11:35 16,4 C 22,5 C 85 % 1002,8 hPa 0,0 l/m 10,4 km/h (2 Bft) S-SW22.5 200 0 min 11,6 klux 79 W/m
06.10.2015 11:40 16,4 C 22,6 C 85 % 1002,8 hPa 0,0 l/m 10,4 km/h (2 Bft) S-SW22.5 200 0 min 18,2 klux 124 W/m
06.10.2015 11:45 16,4 C 22,9 C 85 % 1002,8 hPa 0,0 l/m 10,4 km/h (2 Bft) S-SW22.5 200 0 min 32,5 klux 222 W/m
06.10.2015 11:50 16,4 C 23,9 C 85 % 1002,8 hPa 0,0 l/m 10,4 km/h (2 Bft) S-SW22.5 200 0 min 24,6 klux 168 W/m
06.10.2015 11:55 16,8 C 23,9 C 83 % 1002,8 hPa 0,0 l/m 10,4 km/h (2 Bft) S-SW22.5 200 0 min 19,8 klux 135 W/m
06.10.2015 12:00 16,8 C 23,4 C 83 % 1002,8 hPa 0,0 l/m 10,4 km/h (2 Bft) S-SW22.5 200 0 min 35,3 klux 241 W/m
06.10.2015 12:05 16,8 C 25,6 C 83 % 1002,8 hPa 0,0 l/m 11,8 km/h (2 Bft) SW22.5 215 5 min 57,2 klux 391 W/m
06.10.2015 12:10 16,8 C 27,4 C 83 % 1002,8 hPa 0,0 l/m 11,8 km/h (2 Bft) SW22.5 215 0 min 40,6 klux 278 W/m
06.10.2015 12:15 16,8 C 27,5 C 83 % 1002,8 hPa 0,0 l/m 8,9 km/h (2 Bft) S-SW22.5 210 0 min 25,2 klux 172 W/m
06.10.2015 12:20 16,8 C 25,8 C 83 % 1002,8 hPa 0,0 l/m 9,6 km/h (2 Bft) S-SO22.5 165 0 min 16,2 klux 111 W/m
06.10.2015 12:25 16,8 C 24,0 C 83 % 1002,8 hPa 0,0 l/m 12,6 km/h (3 Bft) S22.5 190 0 min 21,6 klux 148 W/m
06.10.2015 12:30 17,4 C 24,4 C 81 % 1002,8 hPa 0,0 l/m 10,2 km/h (2 Bft) S22.5 190 0 min 33,9 klux 232 W/m
06.10.2015 12:35 17,4 C 24,8 C 81 % 1002,8 hPa 0,0 l/m 8,9 km/h (2 Bft) S22.5 190 0 min 32,7 klux 224 W/m
06.10.2015 12:40 17,4 C 26,7 C 81 % 1002,8 hPa 0,0 l/m 6,6 km/h (2 Bft) S22.5 175 0 min 33,1 klux 226 W/m
06.10.2015 12:45 17,4 C 27,0 C 81 % 1002,8 hPa 0,0 l/m 9,3 km/h (2 Bft) S-SO22.5 165 5 min 50,5 klux 345 W/m
06.10.2015 12:50 18,1 C 28,5 C 79 % 1002,8 hPa 0,0 l/m 16,6 km/h (3 Bft) S45 175 5 min 44,0 klux 301 W/m
06.10.2015 12:55 18,1 C 28,7 C 79 % 1002,8 hPa 0,0 l/m 10,6 km/h (2 Bft) S22.5 180 0 min 37,3 klux 255 W/m
06.10.2015 13:00 18,1 C 29,2 C 79 % 1002,8 hPa 0,0 l/m 13,6 km/h (3 Bft) S-SO22.5 160 0 min 37,5 klux 257 W/m
06.10.2015 13:05 18,1 C 28,6 C 79 % 1002,8 hPa 0,0 l/m 10,2 km/h (2 Bft) S-SO45 160 0 min 30,2 klux 207 W/m
06.10.2015 13:10 18,1 C 28,6 C 79 % 1002,8 hPa 0,0 l/m 11,8 km/h (2 Bft) S-SO22.5 155 5 min 45,4 klux 311 W/m
06.10.2015 13:15 18,1 C 32,2 C 79 % 1001,8 hPa 0,0 l/m 10,1 km/h (2 Bft) S22.5 180 5 min 67,0 klux 458 W/m
06.10.2015 13:20 18,1 C 34,6 C 79 % 1001,8 hPa 0,0 l/m 17,3 km/h (3 Bft) S-SO45 165 5 min 70,3 klux 481 W/m
06.10.2015 13:25 18,1 C 37,5 C 79 % 1002,8 hPa 0,0 l/m 17,1 km/h (3 Bft) S45 170 5 min 63,0 klux 431 W/m
06.10.2015 13:30 19,6 C 36,8 C 74 % 1001,8 hPa 0,0 l/m 16,0 km/h (3 Bft) S22.5 170 5 min 61,4 klux 420 W/m
06.10.2015 13:34 19,6 C 36,4 C 74 % 1001,8 hPa 0,0 l/m 16,6 km/h (3 Bft) S-SO45 155 0 min 33,0 klux 226 W/m
06.10.2015 13:40 19,6 C 33,9 C 74 % 1001,8 hPa 0,0 l/m 16,6 km/h (3 Bft) S-SO45 155 6 min 65,7 klux 449 W/m
06.10.2015 13:45 19,6 C 33,2 C 74 % 1001,8 hPa 0,0 l/m 16,6 km/h (3 Bft) S-SO45 155 5 min 66,3 klux 453 W/m
06.10.2015 13:50 19,8 C 32,7 C 73 % 1001,8 hPa 0,0 l/m 15,6 km/h (3 Bft) S-SO22.5 165 0 min 37,4 klux 256 W/m
06.10.2015 13:55 19,8 C 31,7 C 73 % 1001,8 hPa 0,0 l/m 15,6 km/h (3 Bft) S-SO22.5 165 0 min 39,8 klux 272 W/m
06.10.2015 14:00 20,0 C 33,5 C 74 % 1001,8 hPa 0,0 l/m 15,6 km/h (3 Bft) S-SO22.5 165 0 min 31,3 klux 214 W/m
06.10.2015 14:05 20,2 C 34,0 C 74 % 1001,8 hPa 0,0 l/m 15,6 km/h (3 Bft) S-SO22.5 165 5 min 53,7 klux 367 W/m
06.10.2015 14:10 20,3 C 33,4 C 72 % 1001,8 hPa 0,0 l/m 15,6 km/h (3 Bft) S-SO22.5 165 0 min 25,4 klux 174 W/m
06.10.2015 14:15 20,3 C 30,5 C 72 % 1001,8 hPa 0,0 l/m 19,1 km/h (3 Bft) S45 170 0 min 28,6 klux 196 W/m
06.10.2015 14:20 20,3 C 29,7 C 72 % 1001,8 hPa 0,0 l/m 19,1 km/h (3 Bft) S45 170 0 min 28,7 klux 196 W/m
06.10.2015 14:25 20,2 C 28,8 C 72 % 1001,8 hPa 0,0 l/m 19,1 km/h (3 Bft) S45 170 0 min 24,4 klux 167 W/m
06.10.2015 14:30 20,2 C 28,2 C 72 % 1001,8 hPa 0,0 l/m 15,8 km/h (3 Bft) S-SO22.5 165 0 min 31,9 klux 218 W/m
06.10.2015 14:35 20,2 C 28,4 C 72 % 1001,8 hPa 0,0 l/m 12,8 km/h (3 Bft) S-SO22.5 160 0 min 28,5 klux 195 W/m
06.10.2015 14:40 20,2 C 28,4 C 72 % 1001,8 hPa 0,0 l/m 12,8 km/h (3 Bft) S-SO22.5 160 0 min 28,6 klux 196 W/m
06.10.2015 14:45 20,2 C 28,7 C 72 % 1001,8 hPa 0,0 l/m 12,8 km/h (3 Bft) S-SO22.5 160 0 min 32,1 klux 220 W/m
06.10.2015 14:50 20,2 C 29,2 C 72 % 1001,8 hPa 0,0 l/m 12,8 km/h (3 Bft) S-SO22.5 160 0 min 32,1 klux 220 W/m
06.10.2015 14:55 20,4 C 29,2 C 72 % 1001,8 hPa 0,0 l/m 12,8 km/h (3 Bft) S-SO22.5 160 0 min 30,5 klux 209 W/m
06.10.2015 15:00 20,5 C 29,1 C 72 % 1001,8 hPa 0,0 l/m 12,8 km/h (3 Bft) S-SO22.5 160 0 min 30,3 klux 207 W/m
06.10.2015 15:05 20,5 C 28,3 C 72 % 1001,8 hPa 0,0 l/m 12,8 km/h (3 Bft) S-SO22.5 160 0 min 27,4 klux 187 W/m
06.10.2015 15:10 20,4 C 27,9 C 72 % 1001,8 hPa 0,0 l/m 12,8 km/h (3 Bft) S-SO22.5 160 0 min 25,6 klux 175 W/m
06.10.2015 15:15 20,4 C 27,8 C 72 % 1000,8 hPa 0,0 l/m 13,8 km/h (3 Bft) S-SO22.5 155 0 min 27,0 klux 185 W/m
06.10.2015 15:20 20,4 C 27,9 C 72 % 1000,8 hPa 0,0 l/m 16,8 km/h (3 Bft) S22.5 170 0 min 27,9 klux 191 W/m
06.10.2015 15:25 20,5 C 28,1 C 72 % 1000,8 hPa 0,0 l/m 13,5 km/h (3 Bft) S-SO45 160 0 min 29,5 klux 202 W/m
06.10.2015 15:30 20,6 C 28,7 C 72 % 1000,8 hPa 0,0 l/m 7,1 km/h (2 Bft) S-SO22.5 150 0 min 29,4 klux 201 W/m
06.10.2015 15:35 20,7 C 28,9 C 71 % 1000,8 hPa 0,0 l/m 7,1 km/h (2 Bft) S-SO22.5 150 0 min 30,8 klux 211 W/m
06.10.2015 15:40 20,7 C 28,2 C 71 % 1000,8 hPa 0,0 l/m 19,6 km/h (3 Bft) S-SO22.5 155 0 min 23,8 klux 163 W/m
06.10.2015 15:45 20,7 C 26,8 C 71 % 1000,8 hPa 0,0 l/m 19,6 km/h (3 Bft) S-SO22.5 155 0 min 20,0 klux 137 W/m
06.10.2015 15:50 20,5 C 26,4 C 72 % 1000,8 hPa 0,0 l/m 19,6 km/h (3 Bft) S-SO22.5 155 0 min 18,3 klux 125 W/m
06.10.2015 15:55 20,4 C 25,7 C 72 % 1000,8 hPa 0,0 l/m 16,6 km/h (3 Bft) S-SO45 150 0 min 18,6 klux 127 W/m
06.10.2015 16:00 20,4 C 24,8 C 72 % 1000,8 hPa 0,0 l/m 15,3 km/h (3 Bft) S-SO22.5 160 0 min 18,6 klux 127 W/m
06.10.2015 16:05 20,4 C 24,0 C 72 % 1000,8 hPa 0,0 l/m 21,3 km/h (4 Bft) S-SO45 160 0 min 13,8 klux 94 W/m
06.10.2015 16:10 20,2 C 22,2 C 73 % 1000,8 hPa 0,0 l/m 12,8 km/h (3 Bft) S-SO45 160 0 min 13,8 klux 94 W/m
06.10.2015 16:15 20,0 C 21,7 C 74 % 1000,8 hPa 0,0 l/m 13,5 km/h (3 Bft) SO22.5 145 0 min 13,8 klux 94 W/m
06.10.2015 16:20 20,0 C 21,1 C 74 % 1000,8 hPa 0,0 l/m 15,7 km/h (3 Bft) S-SO45 155 0 min 8,93 klux 61 W/m
06.10.2015 16:25 19,9 C 21,1 C 74 % 1000,8 hPa 0,0 l/m 12,5 km/h (2 Bft) S-SO45 150 0 min 8,22 klux 56 W/m
06.10.2015 16:29 19,8 C 21,1 C 74 % 1000,8 hPa 0,0 l/m 9,8 km/h (2 Bft) SO22.5 130 0 min 7,48 klux 51 W/m
06.10.2015 16:35 19,7 C 20,9 C 74 % 1000,8 hPa 0,0 l/m 10,1 km/h (2 Bft) S-SO22.5 160 0 min 6,67 klux 46 W/m
06.10.2015 16:40 19,7 C 20,9 C 74 % 1000,8 hPa 0,0 l/m 6,6 km/h (2 Bft) S-SO22.5 150 0 min 5,65 klux 39 W/m
06.10.2015 16:45 19,7 C 20,7 C 74 % 1000,8 hPa 0,0 l/m 11,0 km/h (2 Bft) S-SO22.5 160 0 min 6,79 klux 46 W/m
06.10.2015 16:50 19,6 C 20,5 C 74 % 1000,8 hPa 0,0 l/m 11,0 km/h (2 Bft) S-SO22.5 160 0 min 7,77 klux 53 W/m
06.10.2015 16:55 19,6 C 20,3 C 74 % 1000,8 hPa 0,0 l/m 11,0 km/h (2 Bft) S-SO22.5 160 0 min 10,5 klux 72 W/m
06.10.2015 17:00 19,6 C 19,9 C 74 % 1000,8 hPa 0,0 l/m 11,0 km/h (2 Bft) S-SO22.5 160 0 min 11,0 klux 75 W/m
06.10.2015 17:05 19,6 C 19,7 C 74 % 1000,8 hPa 0,0 l/m 16,6 km/h (3 Bft) S-SO22.5 160 0 min 10,8 klux 74 W/m
06.10.2015 17:10 19,6 C 19,4 C 74 % 1000,8 hPa 0,0 l/m 16,6 km/h (3 Bft) S-SO22.5 160 0 min 10,4 klux 71 W/m
06.10.2015 17:15 19,6 C 19,3 C 74 % 1000,8 hPa 0,0 l/m 16,5 km/h (3 Bft) S45 175 0 min 9,6 klux 66 W/m
06.10.2015 17:20 19,6 C 19,2 C 74 % 1000,8 hPa 0,0 l/m 16,5 km/h (3 Bft) S45 175 0 min 7,24 klux 50 W/m
06.10.2015 17:25 19,3 C 18,9 C 76 % 1000,8 hPa 0,0 l/m 16,5 km/h (3 Bft) S45 175 0 min 5,43 klux 37 W/m
06.10.2015 17:30 19,3 C 18,8 C 76 % 1000,8 hPa 0,0 l/m 16,5 km/h (3 Bft) S45 175 0 min 4,64 klux 32 W/m
06.10.2015 17:35 19,1 C 18,4 C 77 % 1000,8 hPa 0,0 l/m 12,5 km/h (2 Bft) S22.5 170 0 min 3,16 klux 22 W/m
06.10.2015 17:40 19,1 C 18,1 C 77 % 1000,8 hPa 0,0 l/m 12,5 km/h (2 Bft) S22.5 170 0 min 4,09 klux 28 W/m
06.10.2015 17:45 18,9 C 18,1 C 78 % 1000,8 hPa 0,0 l/m 12,5 km/h (2 Bft) S22.5 170 0 min 4,09 klux 28 W/m
06.10.2015 17:50 18,8 C 17,9 C 78 % 1001,8 hPa 0,0 l/m 14,0 km/h (3 Bft) S22.5 185 0 min 1,38 klux 9 W/m
06.10.2015 17:55 18,8 C 17,7 C 78 % 1001,8 hPa 0,0 l/m 14,0 km/h (3 Bft) S22.5 185 0 min 1,38 klux 9 W/m
06.10.2015 17:59 18,8 C 17,6 C 78 % 1001,8 hPa 0,0 l/m 16,9 km/h (3 Bft) S45 175 0 min 1,14 klux 8 W/m
06.10.2015 18:05 18,6 C 17,5 C 79 % 1001,8 hPa 0,0 l/m 9,7 km/h (2 Bft) S-SO22.5 160 0 min 1,71 klux 12 W/m
06.10.2015 18:10 18,4 C 17,3 C 79 % 1001,8 hPa 0,0 l/m 10,3 km/h (2 Bft) S-SO22.5 160 0 min 1,65 klux 11 W/m
06.10.2015 18:15 18,4 C 17,2 C 80 % 1001,8 hPa 0,0 l/m 16,6 km/h (3 Bft) S-SO22.5 160 0 min 1,26 klux 9 W/m
06.10.2015 18:20 18,4 C 17,2 C 80 % 1001,8 hPa 0,0 l/m 8,3 km/h (2 Bft) S-SO22.5 160 0 min 1,19 klux 8 W/m
06.10.2015 18:25 18,4 C 17,1 C 80 % 1001,8 hPa 0,0 l/m 8,3 km/h (2 Bft) S-SO22.5 160 0 min 1,18 klux 8 W/m
06.10.2015 18:30 18,4 C 17,2 C 80 % 1001,8 hPa 0,0 l/m 8,3 km/h (2 Bft) S-SO22.5 160 0 min 1,23 klux 8 W/m
06.10.2015 18:35 18,3 C 17,2 C 81 % 1001,8 hPa 0,0 l/m 8,3 km/h (2 Bft) S-SO22.5 160 0 min 1,99 klux 14 W/m
06.10.2015 18:40 18,3 C 17,2 C 81 % 1001,8 hPa 0,0 l/m 8,3 km/h (2 Bft) S-SO22.5 160 0 min 2,25 klux 15 W/m
06.10.2015 18:45 18,3 C 17,3 C 81 % 1001,8 hPa 0,0 l/m 14,0 km/h (3 Bft) S22.5 170 5 min 2,24 klux 15 W/m
06.10.2015 18:50 18,3 C 17,3 C 81 % 1001,8 hPa 0,0 l/m 14,0 km/h (3 Bft) S22.5 170 0 min 1,69 klux 12 W/m
06.10.2015 18:55 18,0 C 17,2 C 83 % 1001,8 hPa 0,0 l/m 14,8 km/h (3 Bft) S-SO22.5 160 0 min 1,02 klux 7 W/m
06.10.2015 19:00 18,0 C 17,1 C 83 % 1001,8 hPa 0,0 l/m 14,0 km/h (3 Bft) SO22.5 145 0 min 874 lux 0 W/m
06.10.2015 19:05 17,9 C 16,9 C 82 % 1001,8 hPa 0,0 l/m 12,6 km/h (3 Bft) S-SO22.5 160 0 min 561 lux 0 W/m
06.10.2015 19:10 17,9 C 16,7 C 83 % 1001,8 hPa 0,0 l/m 11,1 km/h (2 Bft) S-SO45 155 0 min 185 lux 0 W/m
06.10.2015 19:15 17,8 C 16,4 C 83 % 1001,8 hPa 0,0 l/m 8,0 km/h (2 Bft) S-SO22.5 160 0 min 88 lux 0 W/m
06.10.2015 19:20 17,7 C 16,2 C 83 % 1001,8 hPa 0,0 l/m 10,8 km/h (2 Bft) S-SO22.5 160 0 min 42 lux 0 W/m
06.10.2015 19:25 17,7 C 16,1 C 83 % 1001,8 hPa 0,0 l/m 9,4 km/h (2 Bft) S-SO22.5 155 0 min 19 lux 0 W/m
06.10.2015 19:30 17,6 C 16,0 C 83 % 1001,8 hPa 0,0 l/m 9,1 km/h (2 Bft) SO22.5 135 0 min 4 lux 0 W/m
06.10.2015 19:35 17,6 C 15,8 C 83 % 1001,8 hPa 0,0 l/m 7,3 km/h (2 Bft) SO 135 0 min 1 lux 0 W/m
06.10.2015 19:40 17,5 C 15,7 C 83 % 1002,8 hPa 0,0 l/m 9,6 km/h (2 Bft) S-SO22.5 155 0 min 1 lux 0 W/m
06.10.2015 19:45 17,4 C 15,6 C 83 % 1002,8 hPa 0,0 l/m 9,9 km/h (2 Bft) S-SO22.5 150 0 min 0 lux 0 W/m
06.10.2015 19:50 17,4 C 15,5 C 84 % 1002,8 hPa 0,0 l/m 9,2 km/h (2 Bft) S-SO22.5 160 0 min 0 lux 0 W/m
06.10.2015 19:54 17,3 C 15,5 C 84 % 1002,8 hPa 0,0 l/m 12,0 km/h (2 Bft) S-SO22.5 160 0 min 0 lux 0 W/m
06.10.2015 20:00 17,3 C 15,5 C 84 % 1002,8 hPa 0,0 l/m 12,0 km/h (2 Bft) S-SO22.5 160 0 min 0 lux 0 W/m
06.10.2015 20:05 17,3 C 15,4 C 85 % 1002,8 hPa 0,0 l/m 10,7 km/h (2 Bft) S-SO22.5 155 0 min 0 lux 0 W/m
06.10.2015 20:10 17,2 C 15,4 C 84 % 1002,8 hPa 0,0 l/m 10,7 km/h (2 Bft) S-SO22.5 155 0 min 0 lux 0 W/m
06.10.2015 20:15 17,2 C 15,4 C 85 % 1002,8 hPa 0,0 l/m 11,8 km/h (2 Bft) SO22.5 140 0 min 0 lux 0 W/m
06.10.2015 20:19 17,1 C 15,2 C 85 % 1002,8 hPa 0,0 l/m 9,4 km/h (2 Bft) SO22.5 130 0 min 0 lux 0 W/m
06.10.2015 20:25 17,0 C 15,2 C 85 % 1002,8 hPa 0,0 l/m 12,0 km/h (2 Bft) S-SO45 160 0 min 0 lux 0 W/m
06.10.2015 20:30 17,0 C 15,2 C 85 % 1002,8 hPa 0,0 l/m 9,0 km/h (2 Bft) S-SO22.5 160 0 min 0 lux 0 W/m
06.10.2015 20:35 17,0 C 15,3 C 85 % 1002,8 hPa 0,0 l/m 10,3 km/h (2 Bft) S-SO22.5 155 0 min 0 lux 0 W/m
06.10.2015 20:40 17,0 C 15,2 C 85 % 1002,8 hPa 0,0 l/m 9,7 km/h (2 Bft) S-SO22.5 150 0 min 0 lux 0 W/m
06.10.2015 20:45 16,9 C 15,0 C 86 % 1002,8 hPa 0,0 l/m 9,2 km/h (2 Bft) S-SO22.5 150 0 min 0 lux 0 W/m
06.10.2015 20:50 16,8 C 15,0 C 86 % 1002,8 hPa 0,0 l/m 11,2 km/h (2 Bft) S-SO45 155 0 min 0 lux 0 W/m
06.10.2015 20:55 16,8 C 15,1 C 86 % 1002,8 hPa 0,0 l/m 10,8 km/h (2 Bft) S-SO45 155 0 min 0 lux 0 W/m
06.10.2015 21:00 16,8 C 15,2 C 86 % 1002,8 hPa 0,0 l/m 11,6 km/h (2 Bft) S-SO22.5 160 0 min 0 lux 0 W/m
06.10.2015 21:05 16,8 C 15,1 C 86 % 1002,8 hPa 0,0 l/m 11,6 km/h (2 Bft) S-SO22.5 160 0 min 0 lux 0 W/m
06.10.2015 21:10 16,7 C 15,1 C 86 % 1002,8 hPa 0,0 l/m 10,1 km/h (2 Bft) S-SO22.5 160 0 min 0 lux 0 W/m
06.10.2015 21:15 16,7 C 15,1 C 86 % 1002,8 hPa 0,0 l/m 15,0 km/h (3 Bft) S-SO22.5 160 0 min 0 lux 0 W/m
06.10.2015 21:20 16,7 C 15,0 C 86 % 1002,8 hPa 0,0 l/m 15,1 km/h (3 Bft) S-SO45 155 0 min 0 lux 0 W/m
06.10.2015 21:25 16,7 C 15,0 C 86 % 1002,8 hPa 0,0 l/m 17,3 km/h (3 Bft) S-SO45 155 0 min 0 lux 0 W/m
06.10.2015 21:30 16,7 C 14,9 C 86 % 1002,8 hPa 0,0 l/m 14,1 km/h (3 Bft) S-SO22.5 155 0 min 0 lux 0 W/m
06.10.2015 21:35 16,6 C 14,9 C 86 % 1002,8 hPa 0,0 l/m 15,1 km/h (3 Bft) S-SO45 160 0 min 0 lux 0 W/m
06.10.2015 21:40 16,6 C 15,0 C 86 % 1002,8 hPa 0,0 l/m 19,0 km/h (3 Bft) S-SO22.5 160 0 min 0 lux 0 W/m
06.10.2015 21:45 16,6 C 14,8 C 86 % 1002,8 hPa 0,0 l/m 17,0 km/h (3 Bft) S-SO45 160 0 min 0 lux 0 W/m
06.10.2015 21:50 16,6 C 14,7 C 86 % 1002,8 hPa 0,0 l/m 17,0 km/h (3 Bft) S-SO45 160 0 min 0 lux 0 W/m
06.10.2015 21:55 16,5 C 14,6 C 85 % 1002,8 hPa 0,0 l/m 15,5 km/h (3 Bft) S-SO22.5 160 0 min 0 lux 0 W/m
06.10.2015 22:00 16,4 C 14,5 C 85 % 1002,8 hPa 0,0 l/m 12,7 km/h (3 Bft) S-SO22.5 150 0 min 0 lux 0 W/m
06.10.2015 22:05 16,4 C 14,4 C 85 % 1002,8 hPa 0,0 l/m 11,3 km/h (2 Bft) SO45 130 0 min 0 lux 0 W/m
06.10.2015 22:10 16,2 C 14,2 C 85 % 1002,8 hPa 0,0 l/m 8,3 km/h (2 Bft) SO45 140 0 min 0 lux 0 W/m
06.10.2015 22:15 16,1 C 14,1 C 85 % 1002,8 hPa 0,0 l/m 9,5 km/h (2 Bft) SO22.5 145 0 min 0 lux 0 W/m
06.10.2015 22:20 16,1 C 14,1 C 85 % 1002,8 hPa 0,0 l/m 13,0 km/h (3 Bft) SO22.5 140 0 min 0 lux 0 W/m
06.10.2015 22:25 16,1 C 14,0 C 85 % 1002,8 hPa 0,0 l/m 14,5 km/h (3 Bft) S-SO22.5 155 0 min 0 lux 0 W/m
06.10.2015 22:30 16,0 C 14,0 C 85 % 1002,8 hPa 0,0 l/m 13,1 km/h (3 Bft) SO45 140 0 min 0 lux 0 W/m
06.10.2015 22:35 16,0 C 14,2 C 85 % 1002,8 hPa 0,0 l/m 16,9 km/h (3 Bft) S-SO22.5 160 0 min 0 lux 0 W/m
06.10.2015 22:40 16,0 C 14,4 C 85 % 1003,9 hPa 0,0 l/m 12,4 km/h (2 Bft) SO22.5 145 0 min 0 lux 0 W/m
06.10.2015 22:44 16,0 C 14,6 C 85 % 1003,9 hPa 0,0 l/m 14,8 km/h (3 Bft) S-SO45 160 0 min 0 lux 0 W/m
06.10.2015 22:50 16,1 C 14,8 C 85 % 1003,8 hPa 0,0 l/m 13,4 km/h (3 Bft) S-SO45 150 0 min 0 lux 0 W/m
06.10.2015 22:55 16,1 C 14,8 C 85 % 1003,8 hPa 0,0 l/m 8,7 km/h (2 Bft) S-SO22.5 155 0 min 0 lux 0 W/m
06.10.2015 23:00 16,0 C 14,6 C 85 % 1003,9 hPa 0,0 l/m 12,6 km/h (3 Bft) S-SO45 155 0 min 0 lux 0 W/m
06.10.2015 23:05 16,0 C 14,6 C 85 % 1003,9 hPa 0,0 l/m 12,4 km/h (2 Bft) SO45 125 0 min 0 lux 0 W/m
06.10.2015 23:10 16,0 C 14,5 C 85 % 1003,9 hPa 0,0 l/m 12,4 km/h (2 Bft) SO45 125 0 min 0 lux 0 W/m
06.10.2015 23:15 16,0 C 14,4 C 85 % 1003,9 hPa 0,0 l/m 16,9 km/h (3 Bft) S-SO45 160 0 min 0 lux 0 W/m
06.10.2015 23:20 16,0 C 14,3 C 85 % 1003,9 hPa 0,0 l/m 9,2 km/h (2 Bft) SO22.5 135 0 min 0 lux 0 W/m
06.10.2015 23:25 16,0 C 14,2 C 85 % 1003,9 hPa 0,0 l/m 16,3 km/h (3 Bft) SO22.5 145 0 min 0 lux 0 W/m
06.10.2015 23:30 16,0 C 14,1 C 85 % 1003,9 hPa 0,0 l/m 14,3 km/h (3 Bft) S-SO45 150 0 min 0 lux 0 W/m
06.10.2015 23:35 15,9 C 14,1 C 85 % 1003,9 hPa 0,0 l/m 13,6 km/h (3 Bft) S-SO22.5 155 0 min 0 lux 0 W/m
06.10.2015 23:40 15,9 C 13,9 C 85 % 1003,9 hPa 0,0 l/m 15,5 km/h (3 Bft) SO45 140 0 min 0 lux 0 W/m
06.10.2015 23:45 15,8 C 13,8 C 85 % 1003,9 hPa 0,0 l/m 15,1 km/h (3 Bft) SO45 145 0 min 0 lux 0 W/m
06.10.2015 23:50 15,8 C 13,6 C 85 % 1003,9 hPa 0,0 l/m 6,2 km/h (2 Bft) S-SO22.5 160 0 min 0 lux 0 W/m
06.10.2015 23:55 15,7 C 13,6 C 85 % 1003,9 hPa 0,0 l/m 13,6 km/h (3 Bft) SO45 145 0 min 0 lux 0 W/m
_ Min-Zeit 00:54 00:05 15:35 15:35 - 00:05 - - - - -
Minimum _ 13,7 C 12,9 C 71 % 1000,8 hPa - 0,5 km/h (0 Bft) - - - - -
_ Max-Zeit 15:35 13:25 06:30 00:15 03:05 05:40 - - 13:40 11:00 11:00
Maximum _ 20,7 C 37,5 C 90 % 1005,9 hPa 1,4 l/m 62,6 km/h
O-SO (7 Bft)
- - 6 min 200 klux 1368 W/m
Durchschnitt _ 16,4 C 18,0 C 83 % 1002,2 hPa #11,2 l/m 14,1 km/h (3 Bft) S-SO - #1:11 h 9,4 klux 136 W/m